Time,TemperatureF,DewpointF,PressureIn,WindDirection,WindDirectionDegrees,WindSpeedMPH,WindSpeedGustMPH,Humidity,HourlyPrecipIn,Conditions,Clouds,dailyrainin,SoftwareType,DateUTC
2015-07-03 00:00:00,67.5,64.8,29.88,WNW,294,0.0,0.0,91,0.00,,,0.00,meteohub,2015-07-03 04:00:00,
2015-07-03 00:05:00,67.5,64.8,29.88,WNW,294,0.0,0.0,91,0.00,,,0.00,meteohub,2015-07-03 04:05:00,
2015-07-03 00:11:00,67.5,64.8,29.88,WNW,294,0.0,0.0,91,0.00,,,0.00,meteohub,2015-07-03 04:11:00,
2015-07-03 00:16:00,67.3,64.6,29.88,WNW,294,0.0,0.0,91,0.00,,,0.00,meteohub,2015-07-03 04:16:00,
2015-07-03 00:21:00,67.5,64.8,29.88,WNW,294,0.0,0.0,91,0.00,,,0.00,meteohub,2015-07-03 04:21:00,
2015-07-03 00:26:00,67.5,64.8,29.88,WNW,294,0.0,0.0,91,0.00,,,0.00,meteohub,2015-07-03 04:26:00,
2015-07-03 00:31:00,67.3,64.6,29.88,WNW,294,0.0,0.0,91,0.00,,,0.00,meteohub,2015-07-03 04:31:00,
2015-07-03 00:36:00,67.3,64.6,29.88,WNW,294,0.0,0.0,91,0.00,,,0.00,meteohub,2015-07-03 04:36:00,
2015-07-03 00:41:00,67.3,64.6,29.88,WNW,294,0.0,0.0,91,0.00,,,0.00,meteohub,2015-07-03 04:41:00,
2015-07-03 00:46:00,67.3,64.6,29.87,WNW,294,0.0,0.0,91,0.00,,,0.00,meteohub,2015-07-03 04:46:00,
2015-07-03 00:52:00,67.3,64.6,29.87,WNW,294,0.0,0.0,91,0.00,,,0.00,meteohub,2015-07-03 04:52:00,
2015-07-03 00:53:00,67.3,64.6,29.87,WNW,294,0.0,0.0,91,0.00,,,0.00,meteohub,2015-07-03 04:53:00,
2015-07-03 00:57:00,67.3,64.6,29.87,WNW,294,0.0,0.0,91,0.00,,,0.00,meteohub,2015-07-03 04:57:00,
2015-07-03 01:02:00,67.3,64.6,29.87,WNW,294,0.0,0.0,91,0.00,,,0.00,meteohub,2015-07-03 05:02:00,
2015-07-03 01:07:00,67.1,64.4,29.87,WNW,294,0.0,0.0,91,0.00,,,0.00,meteohub,2015-07-03 05:07:00,
2015-07-03 01:12:00,66.9,64.2,29.87,WNW,294,0.0,0.0,91,0.00,,,0.00,meteohub,2015-07-03 05:12:00,
2015-07-03 01:17:00,66.9,64.2,29.87,WNW,294,0.0,0.0,91,0.00,,,0.00,meteohub,2015-07-03 05:17:00,
2015-07-03 01:22:00,66.7,64.0,29.88,WNW,294,0.0,0.0,91,0.00,,,0.00,meteohub,2015-07-03 05:22:00,
2015-07-03 01:27:00,66.6,63.9,29.88,WNW,294,0.0,0.0,91,0.00,,,0.00,meteohub,2015-07-03 05:27:00,
2015-07-03 01:32:00,66.6,63.9,29.88,WNW,294,0.0,0.0,91,0.00,,,0.00,meteohub,2015-07-03 05:32:00,
2015-07-03 01:37:00,66.4,63.7,29.88,WNW,294,0.0,0.0,91,0.00,,,0.00,meteohub,2015-07-03 05:37:00,
2015-07-03 01:42:00,66.4,63.7,29.88,WNW,294,0.0,0.0,91,0.00,,,0.00,meteohub,2015-07-03 05:42:00,
2015-07-03 01:47:00,66.0,63.3,29.88,WNW,294,0.0,0.0,91,0.00,,,0.00,meteohub,2015-07-03 05:47:00,
2015-07-03 01:52:00,66.0,63.3,29.88,WNW,294,0.0,0.0,91,0.00,,,0.00,meteohub,2015-07-03 05:52:00,
2015-07-03 01:57:00,66.0,63.3,29.89,WNW,294,0.0,0.0,91,0.00,,,0.00,meteohub,2015-07-03 05:57:00,
2015-07-03 02:02:00,66.0,63.3,29.89,WNW,294,0.0,0.0,91,0.00,,,0.00,meteohub,2015-07-03 06:02:00,
2015-07-03 02:07:00,66.0,63.3,29.89,WNW,294,0.0,0.0,91,0.01,,,0.01,meteohub,2015-07-03 06:07:00,
2015-07-03 02:12:00,66.0,63.3,29.88,WNW,294,0.0,0.0,91,0.01,,,0.01,meteohub,2015-07-03 06:12:00,
2015-07-03 02:17:00,66.0,63.3,29.87,WNW,294,0.0,0.0,91,0.01,,,0.01,meteohub,2015-07-03 06:17:00,
2015-07-03 02:22:00,65.8,63.1,29.88,WNW,294,0.0,0.0,91,0.01,,,0.01,meteohub,2015-07-03 06:22:00,
2015-07-03 02:27:00,65.8,63.5,29.89,WNW,294,0.0,0.0,92,0.01,,,0.01,meteohub,2015-07-03 06:27:00,
2015-07-03 02:32:00,65.8,63.5,29.88,WNW,294,0.0,0.0,92,0.01,,,0.01,meteohub,2015-07-03 06:32:00,
2015-07-03 02:37:00,65.7,63.3,29.88,WNW,294,0.0,0.0,92,0.01,,,0.01,meteohub,2015-07-03 06:37:00,
2015-07-03 02:42:00,65.7,63.3,29.87,WNW,294,0.0,0.0,92,0.01,,,0.01,meteohub,2015-07-03 06:42:00,
2015-07-03 02:47:00,65.7,63.3,29.87,WNW,294,0.0,0.0,92,0.01,,,0.01,meteohub,2015-07-03 06:47:00,
2015-07-03 02:52:00,65.7,63.3,29.87,WNW,294,0.0,0.0,92,0.01,,,0.01,meteohub,2015-07-03 06:52:00,
2015-07-03 02:57:00,65.7,63.3,29.86,WNW,294,0.0,0.0,92,0.01,,,0.01,meteohub,2015-07-03 06:57:00,
2015-07-03 03:02:00,65.5,63.1,29.87,WNW,294,0.0,0.0,92,0.01,,,0.01,meteohub,2015-07-03 07:02:00,
2015-07-03 03:07:00,65.3,63.0,29.87,WNW,294,0.0,0.0,92,0.00,,,0.01,meteohub,2015-07-03 07:07:00,
2015-07-03 03:12:00,65.1,62.8,29.87,WNW,294,0.0,0.0,92,0.00,,,0.01,meteohub,2015-07-03 07:12:00,
2015-07-03 03:17:00,65.1,62.8,29.87,WNW,294,0.0,0.0,92,0.00,,,0.01,meteohub,2015-07-03 07:17:00,
2015-07-03 03:22:00,65.1,62.8,29.87,WNW,294,0.0,0.0,92,0.00,,,0.01,meteohub,2015-07-03 07:22:00,
2015-07-03 03:27:00,64.9,62.6,29.86,WNW,294,0.0,0.0,92,0.00,,,0.01,meteohub,2015-07-03 07:27:00,
2015-07-03 03:32:00,64.9,62.6,29.87,WNW,294,0.0,0.0,92,0.00,,,0.01,meteohub,2015-07-03 07:32:00,
2015-07-03 03:37:00,64.9,62.6,29.87,WNW,294,0.0,0.0,92,0.00,,,0.01,meteohub,2015-07-03 07:37:00,
2015-07-03 03:42:00,64.8,62.4,29.87,WNW,294,0.0,0.0,92,0.00,,,0.01,meteohub,2015-07-03 07:42:00,
2015-07-03 03:47:00,64.4,62.1,29.88,WNW,294,0.0,0.0,92,0.00,,,0.01,meteohub,2015-07-03 07:47:00,
2015-07-03 03:52:00,64.0,61.7,29.88,WNW,294,0.0,0.0,92,0.00,,,0.01,meteohub,2015-07-03 07:52:00,
2015-07-03 03:57:00,63.9,61.5,29.88,WNW,294,0.0,0.0,92,0.00,,,0.01,meteohub,2015-07-03 07:57:00,
2015-07-03 04:02:00,63.7,61.3,29.88,WNW,294,0.0,0.0,92,0.00,,,0.01,meteohub,2015-07-03 08:02:00,
2015-07-03 04:07:00,63.3,61.0,29.88,WNW,294,0.0,0.0,92,0.00,,,0.01,meteohub,2015-07-03 08:07:00,
2015-07-03 04:12:00,63.1,60.8,29.88,ESE,115,0.0,0.0,92,0.00,,,0.01,meteohub,2015-07-03 08:12:00,
2015-07-03 04:17:00,63.0,60.6,29.88,ESE,115,0.0,0.0,92,0.00,,,0.01,meteohub,2015-07-03 08:17:00,
2015-07-03 04:22:00,62.6,60.3,29.88,ESE,115,0.0,0.0,92,0.00,,,0.01,meteohub,2015-07-03 08:22:00,
2015-07-03 04:27:00,62.4,60.1,29.88,ESE,115,0.0,0.0,92,0.01,,,0.02,meteohub,2015-07-03 08:27:00,
2015-07-03 04:32:00,62.2,59.9,29.88,ESE,115,0.0,0.0,92,0.01,,,0.02,meteohub,2015-07-03 08:32:00,
2015-07-03 04:37:00,62.1,59.7,29.88,ESE,115,0.0,0.0,92,0.01,,,0.02,meteohub,2015-07-03 08:37:00,
2015-07-03 04:42:00,61.9,59.5,29.88,ESE,115,0.0,0.0,92,0.01,,,0.02,meteohub,2015-07-03 08:42:00,
2015-07-03 04:47:00,61.7,59.4,29.88,East,88,0.0,0.0,92,0.01,,,0.02,meteohub,2015-07-03 08:47:00,
2015-07-03 04:52:00,61.5,59.2,29.88,ENE,77,0.0,0.0,92,0.01,,,0.02,meteohub,2015-07-03 08:52:00,
2015-07-03 04:58:00,61.3,59.0,29.89,ESE,105,0.0,0.0,92,0.01,,,0.02,meteohub,2015-07-03 08:58:00,
2015-07-03 05:03:00,61.2,58.8,29.88,ENE,77,0.0,0.0,92,0.01,,,0.02,meteohub,2015-07-03 09:03:00,
2015-07-03 05:08:00,61.2,58.8,29.89,East,91,0.0,0.0,92,0.01,,,0.02,meteohub,2015-07-03 09:08:00,
2015-07-03 05:13:00,61.0,58.6,29.89,East,91,0.0,0.0,92,0.01,,,0.02,meteohub,2015-07-03 09:13:00,
2015-07-03 05:18:00,61.0,58.6,29.89,East,86,0.0,0.0,92,0.01,,,0.02,meteohub,2015-07-03 09:18:00,
2015-07-03 05:23:00,60.8,58.5,29.89,East,100,0.0,0.0,92,0.01,,,0.02,meteohub,2015-07-03 09:23:00,
2015-07-03 05:28:00,60.6,58.3,29.89,East,82,0.0,0.0,92,0.00,,,0.02,meteohub,2015-07-03 09:28:00,
2015-07-03 05:33:00,60.4,58.1,29.90,East,90,0.0,0.0,92,0.00,,,0.02,meteohub,2015-07-03 09:33:00,
2015-07-03 05:38:00,60.4,58.1,29.90,East,95,0.0,0.0,92,0.00,,,0.02,meteohub,2015-07-03 09:38:00,
2015-07-03 05:43:00,60.3,57.9,29.90,East,95,0.0,0.0,92,0.00,,,0.02,meteohub,2015-07-03 09:43:00,
2015-07-03 05:48:00,60.3,57.9,29.90,ENE,61,0.0,0.0,92,0.00,,,0.02,meteohub,2015-07-03 09:48:00,
2015-07-03 05:54:00,60.3,57.9,29.90,East,81,0.0,0.0,92,0.00,,,0.02,meteohub,2015-07-03 09:54:00,
2015-07-03 05:59:00,60.3,57.9,29.90,East,84,0.0,0.0,92,0.00,,,0.02,meteohub,2015-07-03 09:59:00,
2015-07-03 06:04:00,60.3,57.9,29.91,East,89,0.0,0.0,92,0.00,,,0.02,meteohub,2015-07-03 10:04:00,
2015-07-03 06:09:00,60.3,57.9,29.91,ESE,104,0.0,0.0,92,0.00,,,0.02,meteohub,2015-07-03 10:09:00,
2015-07-03 06:14:00,60.3,57.9,29.91,ENE,74,0.0,0.0,92,0.00,,,0.02,meteohub,2015-07-03 10:14:00,
2015-07-03 06:19:00,60.4,58.1,29.91,East,93,0.0,0.0,92,0.00,,,0.02,meteohub,2015-07-03 10:19:00,
2015-07-03 06:24:00,60.4,58.1,29.92,East,93,0.0,0.0,92,0.00,,,0.02,meteohub,2015-07-03 10:24:00,
2015-07-03 06:29:00,60.6,58.3,29.92,East,93,0.0,0.0,92,0.00,,,0.02,meteohub,2015-07-03 10:29:00,
2015-07-03 06:34:00,60.8,58.5,29.92,East,93,0.0,0.0,92,0.00,,,0.02,meteohub,2015-07-03 10:34:00,
2015-07-03 06:39:00,61.0,58.6,29.92,East,92,0.0,0.0,92,0.00,,,0.02,meteohub,2015-07-03 10:39:00,
2015-07-03 06:44:00,61.2,58.5,29.92,East,93,0.0,0.0,91,0.00,,,0.02,meteohub,2015-07-03 10:44:00,
2015-07-03 06:50:00,61.5,58.8,29.92,East,92,0.0,0.0,91,0.00,,,0.02,meteohub,2015-07-03 10:50:00,
2015-07-03 06:55:00,61.5,58.8,29.93,East,88,0.0,0.0,91,0.00,,,0.02,meteohub,2015-07-03 10:55:00,
2015-07-03 07:00:00,61.9,59.2,29.93,ENE,67,0.0,0.0,91,0.00,,,0.02,meteohub,2015-07-03 11:00:00,
2015-07-03 07:05:00,62.1,59.4,29.93,East,88,0.0,0.0,91,0.00,,,0.02,meteohub,2015-07-03 11:05:00,
2015-07-03 07:10:00,62.4,59.4,29.93,East,85,0.0,0.0,90,0.00,,,0.02,meteohub,2015-07-03 11:10:00,
2015-07-03 07:15:00,62.8,59.7,29.94,East,85,0.0,0.0,90,0.00,,,0.02,meteohub,2015-07-03 11:15:00,
2015-07-03 07:20:00,63.0,59.7,29.94,East,90,0.0,0.0,89,0.00,,,0.02,meteohub,2015-07-03 11:20:00,
2015-07-03 07:25:00,63.1,59.9,29.94,ENE,77,0.0,0.0,89,0.00,,,0.02,meteohub,2015-07-03 11:25:00,
2015-07-03 07:30:00,63.3,59.7,29.94,East,97,0.0,0.0,88,0.00,,,0.02,meteohub,2015-07-03 11:30:00,
2015-07-03 07:35:00,63.7,59.7,29.94,East,90,0.0,0.0,87,0.00,,,0.02,meteohub,2015-07-03 11:35:00,
2015-07-03 07:40:00,64.0,59.7,29.94,East,99,0.0,0.0,86,0.00,,,0.02,meteohub,2015-07-03 11:40:00,
2015-07-03 07:46:00,64.2,59.9,29.95,ENE,78,0.0,0.0,86,0.00,,,0.02,meteohub,2015-07-03 11:46:00,
2015-07-03 07:51:00,64.4,59.7,29.95,East,90,0.0,0.0,85,0.00,,,0.02,meteohub,2015-07-03 11:51:00,
2015-07-03 07:56:00,64.8,59.9,29.95,NE,56,0.0,0.0,84,0.00,,,0.02,meteohub,2015-07-03 11:56:00,
2015-07-03 08:01:00,64.8,59.9,29.96,NE,42,0.0,0.0,84,0.00,,,0.02,meteohub,2015-07-03 12:01:00,
2015-07-03 08:06:00,64.8,59.9,29.96,ESE,103,0.0,0.0,84,0.00,,,0.02,meteohub,2015-07-03 12:06:00,
2015-07-03 08:11:00,64.6,59.0,29.96,ENE,74,0.0,0.0,82,0.00,,,0.02,meteohub,2015-07-03 12:11:00,
2015-07-03 08:16:00,64.9,59.7,29.96,ENE,77,0.0,0.0,83,0.00,,,0.02,meteohub,2015-07-03 12:16:00,
2015-07-03 08:22:00,64.9,59.7,29.96,East,81,0.0,0.0,83,0.00,,,0.02,meteohub,2015-07-03 12:22:00,
2015-07-03 08:27:00,64.9,59.9,29.96,ENE,76,0.0,0.0,84,0.00,,,0.02,meteohub,2015-07-03 12:27:00,
2015-07-03 08:32:00,64.9,59.4,29.96,ENE,77,0.0,0.0,82,0.00,,,0.02,meteohub,2015-07-03 12:32:00,
2015-07-03 08:37:00,64.9,59.7,29.96,East,84,0.0,0.0,83,0.00,,,0.02,meteohub,2015-07-03 12:37:00,
2015-07-03 08:42:00,64.9,59.4,29.96,East,89,0.0,0.0,82,0.00,,,0.02,meteohub,2015-07-03 12:42:00,
2015-07-03 08:47:00,64.9,59.0,29.97,ESE,107,0.0,0.0,81,0.00,,,0.02,meteohub,2015-07-03 12:47:00,
2015-07-03 08:52:00,65.5,59.5,29.97,ENE,75,0.0,0.0,81,0.00,,,0.02,meteohub,2015-07-03 12:52:00,
2015-07-03 08:57:00,66.0,60.1,29.97,ENE,66,0.0,0.0,81,0.00,,,0.02,meteohub,2015-07-03 12:57:00,
2015-07-03 09:02:00,66.0,59.4,29.97,SE,126,0.0,0.0,79,0.00,,,0.02,meteohub,2015-07-03 13:02:00,
2015-07-03 09:07:00,66.0,59.0,29.97,ENE,59,0.0,0.0,78,0.00,,,0.02,meteohub,2015-07-03 13:07:00,
2015-07-03 09:12:00,66.2,59.2,29.98,East,85,0.0,0.0,78,0.00,,,0.02,meteohub,2015-07-03 13:12:00,
2015-07-03 09:17:00,66.0,58.6,29.98,East,88,0.0,0.0,77,0.00,,,0.02,meteohub,2015-07-03 13:17:00,
2015-07-03 09:22:00,66.2,58.8,29.98,East,92,0.0,0.0,77,0.00,,,0.02,meteohub,2015-07-03 13:22:00,
2015-07-03 09:27:00,66.0,58.3,29.98,ENE,70,0.0,0.0,76,0.00,,,0.02,meteohub,2015-07-03 13:27:00,
2015-07-03 09:32:00,66.2,58.5,29.98,ESE,110,0.0,0.0,76,0.00,,,0.02,meteohub,2015-07-03 13:32:00,
2015-07-03 09:37:00,66.6,59.2,29.98,East,92,0.0,0.0,77,0.00,,,0.02,meteohub,2015-07-03 13:37:00,
2015-07-03 09:42:00,66.9,59.2,29.98,East,98,0.0,0.0,76,0.00,,,0.02,meteohub,2015-07-03 13:42:00,
2015-07-03 09:47:00,66.9,58.3,29.98,ENE,75,0.0,0.0,74,0.00,,,0.02,meteohub,2015-07-03 13:47:00,
2015-07-03 09:52:00,66.7,58.1,29.98,East,83,0.0,0.0,74,0.00,,,0.02,meteohub,2015-07-03 13:52:00,
2015-07-03 09:57:00,66.7,58.1,29.98,ENE,69,0.0,0.0,74,0.00,,,0.02,meteohub,2015-07-03 13:57:00,
2015-07-03 10:02:00,66.9,58.3,29.98,ENE,73,0.0,0.0,74,0.00,,,0.02,meteohub,2015-07-03 14:02:00,
2015-07-03 10:07:00,67.1,58.5,29.98,ENE,62,0.0,0.0,74,0.00,,,0.02,meteohub,2015-07-03 14:07:00,
2015-07-03 10:12:00,67.1,58.1,29.98,ENE,71,0.0,0.0,73,0.00,,,0.02,meteohub,2015-07-03 14:12:00,
2015-07-03 10:17:00,67.3,57.9,29.99,ESE,123,0.0,0.0,72,0.00,,,0.02,meteohub,2015-07-03 14:17:00,
2015-07-03 10:22:00,67.3,57.9,29.99,East,98,0.0,0.0,72,0.00,,,0.02,meteohub,2015-07-03 14:22:00,
2015-07-03 10:27:00,67.5,57.7,29.99,East,92,0.0,0.0,71,0.00,,,0.02,meteohub,2015-07-03 14:27:00,
2015-07-03 10:32:00,67.8,58.1,29.98,East,88,0.0,0.0,71,0.00,,,0.02,meteohub,2015-07-03 14:32:00,
2015-07-03 10:37:00,67.6,57.6,29.99,ENE,74,0.0,0.0,70,0.00,,,0.02,meteohub,2015-07-03 14:37:00,
2015-07-03 10:43:00,67.8,57.2,29.98,ESE,102,0.0,0.0,69,0.00,,,0.02,meteohub,2015-07-03 14:43:00,
2015-07-03 10:48:00,68.2,58.1,29.98,ENE,76,0.0,0.0,70,0.00,,,0.02,meteohub,2015-07-03 14:48:00,
2015-07-03 10:53:00,68.4,57.4,29.98,East,85,0.0,0.0,68,0.00,,,0.02,meteohub,2015-07-03 14:53:00,
2015-07-03 11:25:00,68.7,57.4,29.98,ENE,78,0.0,0.0,67,0.00,,,0.02,meteohub,2015-07-03 15:25:00,
2015-07-03 11:30:00,69.3,57.4,29.98,ENE,74,0.0,0.0,66,0.00,,,0.02,meteohub,2015-07-03 15:30:00,
2015-07-03 11:35:00,70.0,57.2,29.98,ESE,117,0.0,0.0,64,0.00,,,0.02,meteohub,2015-07-03 15:35:00,
2015-07-03 11:49:00,69.1,55.9,29.98,East,84,0.0,0.0,63,0.00,,,0.02,meteohub,2015-07-03 15:49:00,
2015-07-03 11:54:00,69.4,57.2,29.99,NE,53,0.0,0.0,65,0.00,,,0.02,meteohub,2015-07-03 15:54:00,
2015-07-03 11:59:00,69.6,55.9,29.99,ENE,68,0.0,0.0,62,0.00,,,0.02,meteohub,2015-07-03 15:59:00,
2015-07-03 12:04:00,69.8,56.7,29.99,ENE,77,0.0,0.0,63,0.00,,,0.02,meteohub,2015-07-03 16:04:00,
2015-07-03 12:09:00,70.0,55.9,29.99,ESE,119,0.0,0.0,61,0.00,,,0.02,meteohub,2015-07-03 16:09:00,
2015-07-03 12:14:00,70.0,56.3,29.99,ENE,66,0.0,0.0,62,0.00,,,0.02,meteohub,2015-07-03 16:14:00,
2015-07-03 12:20:00,70.3,56.7,29.99,East,84,0.0,0.0,62,0.00,,,0.02,meteohub,2015-07-03 16:20:00,
2015-07-03 12:25:00,70.9,56.8,29.99,East,79,0.0,0.0,61,0.00,,,0.02,meteohub,2015-07-03 16:25:00,
2015-07-03 12:30:00,71.6,57.0,29.99,East,101,0.0,0.0,60,0.00,,,0.02,meteohub,2015-07-03 16:30:00,
2015-07-03 12:35:00,71.6,55.6,29.99,ENE,77,0.0,0.0,57,0.00,,,0.02,meteohub,2015-07-03 16:35:00,
2015-07-03 12:40:00,71.2,55.2,29.99,ENE,78,0.0,0.0,57,0.00,,,0.02,meteohub,2015-07-03 16:40:00,
2015-07-03 12:45:00,70.9,55.4,29.99,East,81,0.0,0.0,58,0.00,,,0.02,meteohub,2015-07-03 16:45:00,
2015-07-03 12:50:00,71.1,55.6,30.00,East,94,0.0,0.0,58,0.00,,,0.02,meteohub,2015-07-03 16:50:00,
2015-07-03 12:55:00,71.2,56.1,30.00,ENE,67,0.0,0.0,59,0.00,,,0.02,meteohub,2015-07-03 16:55:00,
2015-07-03 13:00:00,71.1,55.6,30.00,East,79,0.0,0.0,58,0.00,,,0.02,meteohub,2015-07-03 17:00:00,
2015-07-03 13:05:00,71.1,55.6,30.00,East,98,0.0,0.0,58,0.00,,,0.02,meteohub,2015-07-03 17:05:00,
2015-07-03 13:11:00,70.9,54.9,30.00,East,93,0.0,0.0,57,0.00,,,0.02,meteohub,2015-07-03 17:11:00,
2015-07-03 13:16:00,71.1,54.1,30.00,East,79,0.0,0.0,55,0.00,,,0.02,meteohub,2015-07-03 17:16:00,
2015-07-03 13:21:00,71.6,53.6,30.00,East,84,0.0,0.0,53,0.00,,,0.02,meteohub,2015-07-03 17:21:00,
2015-07-03 13:26:00,72.0,54.9,30.00,East,93,0.0,0.0,55,0.00,,,0.02,meteohub,2015-07-03 17:26:00,
2015-07-03 13:31:00,72.3,54.1,30.00,ENE,63,0.0,0.0,53,0.00,,,0.02,meteohub,2015-07-03 17:31:00,
2015-07-03 13:36:00,72.1,53.1,30.00,East,79,0.0,0.0,51,0.00,,,0.02,meteohub,2015-07-03 17:36:00,
2015-07-03 13:41:00,72.3,55.2,30.00,ENE,64,0.0,0.0,55,0.00,,,0.02,meteohub,2015-07-03 17:41:00,
2015-07-03 13:46:00,72.5,54.3,30.00,ENE,65,0.0,0.0,53,0.00,,,0.02,meteohub,2015-07-03 17:46:00,
2015-07-03 13:51:00,72.3,53.8,30.00,ESE,111,0.0,0.0,52,0.00,,,0.02,meteohub,2015-07-03 17:51:00,
2015-07-03 13:56:00,72.3,53.8,30.00,ENE,73,0.0,0.0,52,0.00,,,0.02,meteohub,2015-07-03 17:56:00,
2015-07-03 14:02:00,72.7,54.5,30.00,West,263,0.0,0.0,53,0.00,,,0.02,meteohub,2015-07-03 18:02:00,
2015-07-03 14:07:00,73.2,53.4,30.00,ENE,65,0.0,0.0,50,0.00,,,0.02,meteohub,2015-07-03 18:07:00,
2015-07-03 14:12:00,73.6,54.3,29.99,WNW,287,0.0,0.0,51,0.00,,,0.02,meteohub,2015-07-03 18:12:00,
2015-07-03 14:17:00,74.1,52.5,29.99,SSE,153,0.0,0.0,47,0.00,,,0.02,meteohub,2015-07-03 18:17:00,
2015-07-03 14:22:00,74.1,52.0,29.99,ENE,63,0.0,0.0,46,0.00,,,0.02,meteohub,2015-07-03 18:22:00,
2015-07-03 14:27:00,74.7,53.1,29.99,ENE,62,0.0,0.0,47,0.00,,,0.02,meteohub,2015-07-03 18:27:00,
2015-07-03 14:32:00,74.8,52.2,29.99,WSW,257,0.0,0.0,45,0.00,,,0.02,meteohub,2015-07-03 18:32:00,
2015-07-03 14:37:00,75.2,52.3,29.99,East,81,0.0,0.0,45,0.00,,,0.02,meteohub,2015-07-03 18:37:00,
2015-07-03 14:42:00,75.6,53.2,29.99,East,81,0.0,0.0,46,0.00,,,0.02,meteohub,2015-07-03 18:42:00,
2015-07-03 14:47:00,75.7,51.6,29.99,ENE,63,0.0,0.0,43,0.00,,,0.02,meteohub,2015-07-03 18:47:00,
2015-07-03 14:52:00,74.7,52.0,29.98,ENE,75,0.0,0.0,45,0.00,,,0.02,meteohub,2015-07-03 18:52:00,
2015-07-03 14:57:00,75.2,52.3,29.99,WSW,248,0.0,0.0,45,0.00,,,0.02,meteohub,2015-07-03 18:57:00,
2015-07-03 15:02:00,75.2,51.1,29.99,East,87,0.0,0.0,43,0.00,,,0.02,meteohub,2015-07-03 19:02:00,
2015-07-03 15:07:00,74.7,53.1,29.98,ENE,67,0.0,0.0,47,0.00,,,0.02,meteohub,2015-07-03 19:07:00,
2015-07-03 15:12:00,74.8,52.7,29.98,ENE,71,0.0,0.0,46,0.00,,,0.02,meteohub,2015-07-03 19:12:00,
2015-07-03 15:17:00,75.2,52.3,29.98,ENE,78,0.0,0.0,45,0.00,,,0.02,meteohub,2015-07-03 19:17:00,
2015-07-03 15:22:00,75.6,52.7,29.98,ESE,111,0.0,0.0,45,0.00,,,0.02,meteohub,2015-07-03 19:22:00,
2015-07-03 15:27:00,75.7,53.4,29.98,SW,223,0.0,0.0,46,0.00,,,0.02,meteohub,2015-07-03 19:27:00,
2015-07-03 15:32:00,76.1,53.8,29.98,ENE,67,0.0,0.0,46,0.00,,,0.02,meteohub,2015-07-03 19:32:00,
2015-07-03 15:37:00,75.7,52.3,29.98,East,80,0.0,0.0,44,0.00,,,0.02,meteohub,2015-07-03 19:37:00,
2015-07-03 15:42:00,75.4,52.0,29.98,ENE,57,0.0,0.0,44,0.00,,,0.02,meteohub,2015-07-03 19:42:00,
2015-07-03 15:47:00,75.4,52.0,29.98,East,85,0.0,0.0,44,0.00,,,0.02,meteohub,2015-07-03 19:47:00,
2015-07-03 15:52:00,75.6,52.7,29.98,NNW,330,0.0,0.0,45,0.00,,,0.02,meteohub,2015-07-03 19:52:00,
2015-07-03 15:57:00,75.7,52.3,29.98,East,97,0.0,0.0,44,0.00,,,0.02,meteohub,2015-07-03 19:57:00,
2015-07-03 16:02:00,75.7,52.9,29.98,SSW,194,0.0,0.0,45,0.00,,,0.02,meteohub,2015-07-03 20:02:00,
2015-07-03 16:07:00,75.9,52.5,29.98,ENE,73,0.0,0.0,44,0.00,,,0.02,meteohub,2015-07-03 20:07:00,
2015-07-03 16:12:00,75.9,53.1,29.98,ENE,78,0.0,0.0,45,0.00,,,0.02,meteohub,2015-07-03 20:12:00,
2015-07-03 16:17:00,76.3,57.9,29.98,West,275,0.0,0.0,53,0.00,,,0.02,meteohub,2015-07-03 20:17:00,
2015-07-03 16:22:00,74.7,59.9,29.98,WSW,245,0.0,0.0,60,0.00,,,0.02,meteohub,2015-07-03 20:22:00,
2015-07-03 16:27:00,73.0,59.7,29.99,West,263,0.0,0.0,63,0.00,,,0.02,meteohub,2015-07-03 20:27:00,
2015-07-03 16:32:00,72.0,59.5,29.99,SW,234,0.0,0.0,65,0.00,,,0.02,meteohub,2015-07-03 20:32:00,
2015-07-03 16:37:00,71.8,60.3,29.99,WNW,302,0.0,0.0,67,0.00,,,0.02,meteohub,2015-07-03 20:37:00,
2015-07-03 16:42:00,71.4,58.6,29.99,West,279,0.0,0.0,64,0.00,,,0.02,meteohub,2015-07-03 20:42:00,
2015-07-03 16:47:00,71.2,60.1,29.99,NW,304,0.0,0.0,68,0.00,,,0.02,meteohub,2015-07-03 20:47:00,
2015-07-03 16:52:00,71.4,59.0,29.99,WNW,292,0.0,0.0,65,0.00,,,0.02,meteohub,2015-07-03 20:52:00,
2015-07-03 16:57:00,71.2,57.9,29.99,WSW,244,0.0,0.0,63,0.00,,,0.02,meteohub,2015-07-03 20:57:00,
2015-07-03 17:02:00,71.1,58.3,29.99,WSW,257,0.0,0.0,64,0.00,,,0.02,meteohub,2015-07-03 21:02:00,
2015-07-03 17:07:00,70.7,58.3,29.99,NW,319,0.0,0.0,65,0.00,,,0.02,meteohub,2015-07-03 21:07:00,